createdAt,value
2023-11-01T00:00:56.560Z,0.60
2023-11-01T00:03:43.731Z,0.60
2023-11-01T00:06:30.811Z,0.50
2023-11-01T00:09:17.865Z,0.50
2023-11-01T00:12:05.242Z,0.67
2023-11-01T00:14:52.307Z,0.67
2023-11-01T00:17:39.409Z,0.60
2023-11-01T00:20:26.549Z,0.57
2023-11-01T00:23:13.744Z,0.60
2023-11-01T00:26:01.174Z,0.67
2023-11-01T00:28:48.239Z,0.50
2023-11-01T00:31:35.603Z,0.60
2023-11-01T00:34:22.625Z,0.60
2023-11-01T00:37:10.194Z,0.63
2023-11-01T00:39:57.258Z,0.60
2023-11-01T00:42:44.654Z,0.80
2023-11-01T00:45:32.081Z,0.60
2023-11-01T00:48:19.163Z,0.60
2023-11-01T00:51:06.343Z,0.90
2023-11-01T00:53:53.666Z,0.50
2023-11-01T00:56:41.374Z,0.50
2023-11-01T00:59:28.492Z,0.80
2023-11-01T01:02:15.667Z,0.80
2023-11-01T01:05:03.176Z,0.70
2023-11-01T01:07:50.724Z,0.53
2023-11-01T01:10:38.279Z,0.70
2023-11-01T01:13:25.400Z,0.60
2023-11-01T01:16:12.440Z,0.70
2023-11-01T01:18:59.923Z,0.70
2023-11-01T01:21:46.921Z,0.40
2023-11-01T01:24:34.020Z,0.60
2023-11-01T01:27:21.102Z,0.60
2023-11-01T01:30:09.489Z,0.70
2023-11-01T01:32:56.658Z,0.50
2023-11-01T01:35:43.799Z,0.40
2023-11-01T01:38:30.970Z,0.57
2023-11-01T01:41:18.204Z,0.60
2023-11-01T01:44:05.707Z,0.57
2023-11-01T01:46:53.394Z,0.70
2023-11-01T01:49:45.464Z,0.60
2023-11-01T01:52:33.478Z,0.63
2023-11-01T01:55:20.540Z,0.60
2023-11-01T01:58:07.793Z,0.70
2023-11-01T02:00:57.205Z,0.60
2023-11-01T02:03:44.356Z,0.60
2023-11-01T02:06:34.253Z,0.60
2023-11-01T02:09:21.476Z,0.50
2023-11-01T02:12:08.701Z,0.50
2023-11-01T02:14:56.060Z,0.53
2023-11-01T02:17:43.278Z,0.60
2023-11-01T02:20:34.734Z,0.57
2023-11-01T02:23:35.365Z,0.63
2023-11-01T02:26:22.807Z,0.60
2023-11-01T02:29:10.682Z,0.67
2023-11-01T02:31:57.887Z,0.57
2023-11-01T02:34:44.893Z,0.60
2023-11-01T02:37:32.096Z,0.50
2023-11-01T02:40:19.546Z,0.47
2023-11-01T02:43:06.692Z,0.43
2023-11-01T02:45:54.488Z,0.60
2023-11-01T02:48:41.570Z,0.70
2023-11-01T02:51:28.630Z,0.60
2023-11-01T02:54:18.287Z,0.50
2023-11-01T02:57:05.353Z,0.30
2023-11-01T02:59:52.488Z,0.70
2023-11-01T03:02:39.621Z,0.40
2023-11-01T03:05:28.287Z,0.50
2023-11-01T03:08:15.557Z,0.40
2023-11-01T03:11:02.635Z,0.50
2023-11-01T03:13:49.862Z,0.50
2023-11-01T03:16:37.299Z,0.43
2023-11-01T03:19:24.337Z,0.50
2023-11-01T03:22:11.401Z,0.50
2023-11-01T03:24:58.542Z,0.50
2023-11-01T03:27:45.713Z,0.40
2023-11-01T03:30:32.722Z,0.50
2023-11-01T03:33:19.880Z,0.33
2023-11-01T03:36:07.848Z,0.40
2023-11-01T03:38:55.352Z,0.50
2023-11-01T03:41:43.705Z,0.50
2023-11-01T03:44:30.816Z,0.60
2023-11-01T03:47:17.931Z,0.40
2023-11-01T03:50:05.518Z,0.53
2023-11-01T03:52:52.620Z,0.77
2023-11-01T03:55:39.931Z,0.50
2023-11-01T03:58:26.964Z,0.53
2023-11-01T04:01:14.190Z,0.43
2023-11-01T04:04:01.310Z,0.50
2023-11-01T04:06:48.384Z,0.40
2023-11-01T04:09:35.523Z,0.50
2023-11-01T04:12:22.609Z,0.40
2023-11-01T04:15:12.090Z,0.40
2023-11-01T04:18:00.895Z,0.60
2023-11-01T04:20:48.910Z,0.53
2023-11-01T04:23:36.156Z,0.50
2023-11-01T04:26:23.998Z,0.70
2023-11-01T04:29:12.298Z,0.40
2023-11-01T04:31:59.396Z,0.50
2023-11-01T04:34:50.529Z,0.40
2023-11-01T04:37:40.906Z,0.47
2023-11-01T04:40:27.957Z,0.30
2023-11-01T04:43:15.811Z,0.37
2023-11-01T04:46:02.969Z,0.60
2023-11-01T04:48:51.192Z,0.30
2023-11-01T04:51:38.419Z,0.50
2023-11-01T04:54:25.422Z,0.40
2023-11-01T04:57:12.499Z,0.40
2023-11-01T05:00:00.075Z,0.50
2023-11-01T05:02:47.537Z,0.60
2023-11-01T05:05:34.748Z,0.60
2023-11-01T05:08:21.821Z,0.50
2023-11-01T05:11:09.175Z,0.60
2023-11-01T05:13:56.202Z,0.60
2023-11-01T05:16:43.275Z,0.50
2023-11-01T05:19:30.365Z,0.50
2023-11-01T05:22:17.825Z,0.60
2023-11-01T05:25:14.383Z,0.63
2023-11-01T05:28:01.563Z,0.50
2023-11-01T05:30:48.715Z,0.60
2023-11-01T05:33:35.861Z,0.60
2023-11-01T05:36:22.913Z,0.50
2023-11-01T05:39:10.013Z,0.43
2023-11-01T05:41:57.231Z,0.50
2023-11-01T05:44:44.289Z,0.50
2023-11-01T05:47:31.449Z,0.70
2023-11-01T05:50:26.523Z,0.40
2023-11-01T05:53:14.197Z,0.40
2023-11-01T05:56:08.364Z,0.50
2023-11-01T05:58:57.409Z,0.40
2023-11-01T06:01:44.593Z,0.50
2023-11-01T06:04:33.795Z,0.43
2023-11-01T06:07:20.841Z,0.50
2023-11-01T06:10:08.761Z,0.60
2023-11-01T06:12:55.789Z,0.73
2023-11-01T06:15:42.898Z,0.70
2023-11-01T06:18:31.891Z,0.50
2023-11-01T06:21:19.001Z,0.60
2023-11-01T06:24:06.477Z,0.60
2023-11-01T06:26:53.558Z,0.60
2023-11-01T06:29:43.432Z,0.70
2023-11-01T06:32:30.700Z,0.50
2023-11-01T06:35:17.882Z,0.60
2023-11-01T06:38:05.178Z,0.50
2023-11-01T06:40:52.211Z,0.60
2023-11-01T06:43:39.220Z,0.50
2023-11-01T06:46:26.285Z,0.60
2023-11-01T06:49:13.316Z,0.57
2023-11-01T06:52:00.417Z,0.60
2023-11-01T06:54:47.538Z,0.60
2023-11-01T06:57:34.961Z,0.70
2023-11-01T07:00:25.123Z,0.40
2023-11-01T07:03:12.568Z,0.60
2023-11-01T07:06:00.458Z,0.43
2023-11-01T07:08:48.680Z,0.50
2023-11-01T07:11:36.477Z,0.57
2023-11-01T07:14:23.517Z,0.50
2023-11-01T07:17:10.565Z,0.40
2023-11-01T07:20:05.762Z,0.40
2023-11-01T07:22:52.940Z,0.40
2023-11-01T07:25:40.022Z,0.47
2023-11-01T07:28:27.176Z,0.40
2023-11-01T07:31:14.816Z,0.40
2023-11-01T07:34:01.994Z,0.43
2023-11-01T07:36:49.079Z,0.50
2023-11-01T07:39:36.363Z,0.40
2023-11-01T07:42:23.589Z,0.40
2023-11-01T07:45:10.817Z,0.57
2023-11-01T07:47:58.175Z,0.50
2023-11-01T07:50:45.562Z,0.50
2023-11-01T07:53:33.114Z,0.40
2023-11-01T07:56:20.840Z,0.50
2023-11-01T07:59:07.931Z,0.50
2023-11-01T08:01:56.587Z,0.40
2023-11-01T08:04:44.787Z,0.30
2023-11-01T08:07:32.553Z,0.50
2023-11-01T08:10:19.876Z,0.30
2023-11-01T08:13:08.086Z,0.50
2023-11-01T08:15:56.250Z,0.40
2023-11-01T08:18:43.439Z,0.50
2023-11-01T08:21:30.612Z,0.53
2023-11-01T08:24:17.745Z,0.40
2023-11-01T08:27:07.968Z,0.50
2023-11-01T08:29:55.446Z,0.60
2023-11-01T08:32:42.743Z,0.50
2023-11-01T08:35:30.658Z,0.60
2023-11-01T08:38:17.762Z,0.50
2023-11-01T08:41:23.796Z,0.40
2023-11-01T08:44:29.430Z,0.40
2023-11-01T08:47:36.626Z,0.57
2023-11-01T08:50:23.975Z,0.50
2023-11-01T08:53:11.100Z,0.30
2023-11-01T08:55:58.157Z,0.43
2023-11-01T08:58:45.246Z,0.40
2023-11-01T09:01:32.812Z,0.43
2023-11-01T09:04:19.949Z,0.50
2023-11-01T09:07:07.062Z,0.53
2023-11-01T09:09:56.524Z,0.50
2023-11-01T09:12:45.710Z,0.40
2023-11-01T09:15:32.862Z,0.53
2023-11-01T09:18:21.402Z,0.40
2023-11-01T09:21:09.019Z,0.50
2023-11-01T09:23:56.098Z,0.50
2023-11-01T09:26:43.831Z,0.50
2023-11-01T09:29:31.528Z,0.30
2023-11-01T09:32:18.639Z,0.60
2023-11-01T09:35:08.265Z,0.50
2023-11-01T09:37:55.367Z,0.43
2023-11-01T09:40:43.377Z,0.60
2023-11-01T09:43:32.051Z,0.60
2023-11-01T09:46:19.611Z,0.43
2023-11-01T09:49:06.807Z,0.47
2023-11-01T09:51:54.121Z,0.50
2023-11-01T09:54:41.174Z,0.50
2023-11-01T09:57:30.590Z,0.60
2023-11-01T10:00:18.031Z,0.97
2023-11-01T10:03:05.665Z,1.50
2023-11-01T10:05:52.783Z,0.70
2023-11-01T10:08:40.138Z,0.90
2023-11-01T10:11:31.122Z,0.90
2023-11-01T10:14:32.033Z,0.90
2023-11-01T10:17:19.200Z,0.80
2023-11-01T10:20:29.931Z,0.80
2023-11-01T10:23:19.080Z,0.70
2023-11-01T10:26:06.836Z,0.80
2023-11-01T10:28:53.943Z,0.70
2023-11-01T10:31:41.005Z,0.60
2023-11-01T10:34:32.464Z,0.63
2023-11-01T10:37:19.590Z,0.70
2023-11-01T10:40:11.218Z,0.53
2023-11-01T10:42:59.983Z,0.40
2023-11-01T10:45:50.547Z,0.60
2023-11-01T10:48:38.735Z,0.50
2023-11-01T10:51:26.067Z,0.50
2023-11-01T10:54:13.933Z,0.57
2023-11-01T10:57:02.850Z,0.60
2023-11-01T11:00:14.112Z,0.50
2023-11-01T11:03:16.752Z,0.60
2023-11-01T11:06:11.222Z,0.70
2023-11-01T11:09:23.351Z,0.50
2023-11-01T11:12:17.518Z,0.60
2023-11-01T11:15:05.549Z,0.80
2023-11-01T11:18:13.253Z,0.70
2023-11-01T11:21:01.209Z,0.73
2023-11-01T11:23:48.359Z,0.80
2023-11-01T11:26:39.135Z,0.80
2023-11-01T11:29:47.465Z,0.70
2023-11-01T11:32:34.659Z,1.00
2023-11-01T11:35:23.670Z,0.73
2023-11-01T11:38:37.825Z,0.60
2023-11-01T11:41:30.075Z,0.70
2023-11-01T11:44:20.921Z,1.00
2023-11-01T11:47:30.922Z,0.90
2023-11-01T11:50:21.137Z,0.83
2023-11-01T11:53:08.399Z,0.90
2023-11-01T11:55:56.307Z,0.77
2023-11-01T11:58:43.396Z,0.80
2023-11-01T12:01:30.830Z,0.90
2023-11-01T12:04:18.499Z,0.77
2023-11-01T12:07:05.679Z,0.73
2023-11-01T12:09:54.216Z,0.60
2023-11-01T12:12:54.030Z,0.80
2023-11-01T12:15:42.724Z,0.67
2023-11-01T12:18:30.547Z,0.57
2023-11-01T12:21:17.703Z,0.70
2023-11-01T12:24:05.165Z,0.90
2023-11-01T12:27:00.265Z,0.83
2023-11-01T12:29:55.505Z,0.80
2023-11-01T12:32:43.350Z,0.60
2023-11-01T12:35:30.871Z,0.60
2023-11-01T12:38:18.772Z,0.50
2023-11-01T12:41:12.077Z,0.70
2023-11-01T12:43:59.178Z,0.60
2023-11-01T12:46:46.296Z,0.57
2023-11-01T12:49:33.365Z,0.60
2023-11-01T12:52:20.785Z,0.70
2023-11-01T12:55:09.943Z,0.50
2023-11-01T12:58:00.349Z,0.50
2023-11-01T13:00:48.585Z,0.70
2023-11-01T13:03:37.429Z,0.60
2023-11-01T13:06:25.564Z,0.50
2023-11-01T13:09:15.684Z,0.53
2023-11-01T13:12:03.329Z,0.60
2023-11-01T13:14:50.473Z,0.60
2023-11-01T13:17:37.747Z,0.60
2023-11-01T13:20:24.928Z,0.70
2023-11-01T13:23:12.005Z,0.50
2023-11-01T13:25:59.081Z,0.60
2023-11-01T13:28:47.674Z,0.73
2023-11-01T13:31:34.809Z,0.53
2023-11-01T13:34:22.955Z,0.50
2023-11-01T13:37:10.587Z,0.63
2023-11-01T13:39:58.510Z,0.50
2023-11-01T13:42:45.608Z,0.43
2023-11-01T13:45:33.032Z,0.60
2023-11-01T13:48:20.664Z,0.53
2023-11-01T13:51:08.413Z,0.60
2023-11-01T13:53:55.556Z,0.57
2023-11-01T13:56:42.685Z,0.50
2023-11-01T13:59:29.801Z,0.40
2023-11-01T14:02:16.957Z,0.50
2023-11-01T14:05:04.501Z,0.50
2023-11-01T14:07:51.881Z,0.50
2023-11-01T14:10:38.981Z,0.40
2023-11-01T14:13:26.363Z,0.60
2023-11-01T14:16:13.751Z,0.50
2023-11-01T14:19:00.877Z,0.53
2023-11-01T14:21:48.439Z,0.60
2023-11-01T14:24:35.675Z,0.50
2023-11-01T14:27:23.482Z,0.50
2023-11-01T14:30:11.138Z,0.40
2023-11-01T14:32:58.567Z,0.40
2023-11-01T14:35:45.878Z,0.40
2023-11-01T14:38:33.427Z,0.50
2023-11-01T14:41:20.586Z,0.40
2023-11-01T14:44:07.761Z,0.60
2023-11-01T14:46:54.955Z,0.40
2023-11-01T14:49:42.058Z,0.47
2023-11-01T14:52:29.176Z,0.40
2023-11-01T14:55:17.117Z,0.43
2023-11-01T14:58:22.464Z,0.50
2023-11-01T15:01:28.051Z,0.43
2023-11-01T15:04:15.836Z,0.40
2023-11-01T15:07:02.954Z,0.60
2023-11-01T15:09:50.024Z,0.60
2023-11-01T15:12:37.405Z,0.53
2023-11-01T15:15:24.784Z,0.50
2023-11-01T15:18:11.883Z,0.60
2023-11-01T15:20:59.096Z,0.50
2023-11-01T15:23:46.487Z,0.40
2023-11-01T15:26:36.734Z,0.63
2023-11-01T15:29:23.980Z,0.50
2023-11-01T15:32:11.297Z,0.57
2023-11-01T15:34:58.363Z,0.70
2023-11-01T15:37:45.765Z,0.60
2023-11-01T15:40:32.918Z,1.00
2023-11-01T15:43:20.117Z,0.63
2023-11-01T15:46:07.413Z,0.60
2023-11-01T15:48:54.617Z,0.70
2023-11-01T15:51:41.861Z,0.80
2023-11-01T15:54:29.214Z,0.77
2023-11-01T15:57:18.220Z,0.60
2023-11-01T16:00:07.548Z,0.50
2023-11-01T16:02:54.845Z,0.40
2023-11-01T16:05:42.361Z,0.50
2023-11-01T16:08:29.557Z,0.50
2023-11-01T16:11:16.700Z,0.70
2023-11-01T16:14:05.738Z,0.60
2023-11-01T16:16:53.113Z,0.47
2023-11-01T16:19:40.704Z,0.60
2023-11-01T16:22:27.877Z,0.40
2023-11-01T16:25:14.989Z,0.67
2023-11-01T16:28:02.105Z,0.83
2023-11-01T16:31:07.773Z,0.70
2023-11-01T16:34:13.563Z,0.60
2023-11-01T16:37:00.729Z,0.60
2023-11-01T16:39:48.411Z,0.80
2023-11-01T16:42:35.614Z,0.60
2023-11-01T16:45:23.692Z,0.73
2023-11-01T16:48:10.916Z,0.53
2023-11-01T16:50:58.100Z,0.50
2023-11-01T16:53:45.259Z,0.60
2023-11-01T16:56:34.917Z,0.53
2023-11-01T16:59:40.507Z,0.50
2023-11-01T17:02:31.448Z,0.50
2023-11-01T17:05:21.090Z,0.60
2023-11-01T17:08:09.232Z,0.60
2023-11-01T17:10:59.771Z,0.50
2023-11-01T17:13:46.886Z,0.53
2023-11-01T17:16:34.081Z,0.50
2023-11-01T17:19:21.554Z,0.70
2023-11-01T17:22:33.638Z,0.50
2023-11-01T17:25:32.919Z,0.50
2023-11-01T17:28:25.813Z,0.80
2023-11-01T17:31:15.615Z,0.90
2023-11-01T17:34:03.177Z,0.73
2023-11-01T17:36:50.357Z,0.70
2023-11-01T17:39:39.989Z,0.60
2023-11-01T17:42:31.310Z,0.60
2023-11-01T17:45:19.403Z,0.60
2023-11-01T17:48:08.105Z,0.67
2023-11-01T17:50:55.476Z,0.93
2023-11-01T17:53:42.710Z,1.00
2023-11-01T17:56:30.585Z,2.00
2023-11-01T17:59:22.599Z,2.70
2023-11-01T18:02:32.667Z,1.70
2023-11-01T18:05:35.581Z,1.20
2023-11-01T18:08:34.093Z,0.90
2023-11-01T18:11:22.962Z,0.90
2023-11-01T18:14:14.044Z,0.90
2023-11-01T18:17:02.237Z,0.67
2023-11-01T18:19:49.508Z,0.57
2023-11-01T18:22:41.979Z,0.80
2023-11-01T18:25:29.865Z,0.80
2023-11-01T18:28:18.812Z,0.70
2023-11-01T18:31:10.258Z,0.60
2023-11-01T18:34:01.554Z,0.70
2023-11-01T18:36:49.455Z,0.80
2023-11-01T18:39:37.247Z,0.80
2023-11-01T18:42:44.794Z,0.53
2023-11-01T18:45:34.687Z,0.70
2023-11-01T18:48:27.651Z,0.90
2023-11-01T18:51:55.818Z,1.80
2023-11-01T18:54:46.440Z,2.20
2023-11-01T18:57:37.348Z,2.83
2023-11-01T19:00:28.416Z,2.20
2023-11-01T19:03:19.825Z,1.90
2023-11-01T19:06:07.515Z,1.30
2023-11-01T19:08:56.170Z,1.00
2023-11-01T19:11:43.740Z,0.73
2023-11-01T19:14:36.177Z,0.90
2023-11-01T19:17:23.812Z,0.87
2023-11-01T19:20:11.286Z,0.90
2023-11-01T19:22:58.625Z,1.20
2023-11-01T19:25:46.659Z,1.13
2023-11-01T19:28:33.907Z,1.10
2023-11-01T19:31:21.954Z,1.07
2023-11-01T19:34:09.226Z,1.23
2023-11-01T19:36:57.583Z,1.27
2023-11-01T19:39:44.879Z,1.30
2023-11-01T19:42:32.335Z,1.53
2023-11-01T19:45:19.781Z,1.53
2023-11-01T19:48:08.822Z,2.27
2023-11-01T19:50:58.629Z,1.90
2023-11-01T19:53:46.006Z,1.37
2023-11-01T19:56:33.265Z,1.50
2023-11-01T19:59:20.471Z,1.00
2023-11-01T20:02:08.945Z,1.10
2023-11-01T20:04:56.164Z,1.20
2023-11-01T20:07:44.385Z,1.60
2023-11-01T20:10:31.607Z,1.40
2023-11-01T20:13:19.599Z,1.67
2023-11-01T20:16:12.741Z,1.60
2023-11-01T20:19:05.011Z,1.70
2023-11-01T20:21:53.836Z,1.40
2023-11-01T20:24:43.263Z,1.47
2023-11-01T20:27:30.470Z,1.40
2023-11-01T20:30:18.612Z,1.50
2023-11-01T20:33:07.669Z,1.53
2023-11-01T20:35:55.003Z,1.77
2023-11-01T20:38:42.333Z,1.67
2023-11-01T20:41:29.566Z,1.50
2023-11-01T20:44:16.908Z,1.30
2023-11-01T20:47:04.362Z,1.20
2023-11-01T20:49:51.670Z,1.70
2023-11-01T20:52:39.807Z,2.10
2023-11-01T20:55:27.104Z,1.57
2023-11-01T20:58:14.346Z,2.30
2023-11-01T21:01:01.760Z,1.93
2023-11-01T21:03:49.189Z,1.77
2023-11-01T21:06:37.294Z,1.67
2023-11-01T21:09:24.539Z,1.73
2023-11-01T21:12:12.136Z,1.47
2023-11-01T21:14:59.270Z,1.97
2023-11-01T21:17:46.521Z,2.13
2023-11-01T21:20:37.436Z,2.03
2023-11-01T21:23:24.517Z,2.27
2023-11-01T21:26:11.601Z,1.80
2023-11-01T21:28:58.653Z,1.67
2023-11-01T21:31:45.746Z,1.60
2023-11-01T21:34:32.908Z,2.87
2023-11-01T21:37:20.635Z,1.97
2023-11-01T21:40:08.440Z,2.13
2023-11-01T21:42:56.459Z,1.63
2023-11-01T21:45:54.265Z,1.90
2023-11-01T21:48:41.542Z,1.50
2023-11-01T21:51:30.803Z,1.80
2023-11-01T21:54:26.282Z,1.90
2023-11-01T21:57:13.833Z,1.57
2023-11-01T22:00:08.788Z,1.80
2023-11-01T22:03:01.905Z,2.00
2023-11-01T22:05:49.211Z,11.80
2023-11-01T22:08:36.251Z,31.57
2023-11-01T22:11:23.389Z,19.30
2023-11-01T22:14:38.776Z,7.67
2023-11-01T22:17:39.929Z,4.30
2023-11-01T22:20:27.723Z,3.90
2023-11-01T22:23:14.904Z,3.03
2023-11-01T22:26:04.874Z,2.30
2023-11-01T22:28:52.071Z,2.00
2023-11-01T22:31:46.474Z,1.90
2023-11-01T22:34:38.183Z,2.13
2023-11-01T22:37:26.694Z,1.90
2023-11-01T22:40:14.501Z,2.07
2023-11-01T22:43:01.759Z,1.73
2023-11-01T22:45:48.860Z,2.20
2023-11-01T22:48:36.015Z,1.63
2023-11-01T22:51:23.171Z,1.90
2023-11-01T22:54:10.308Z,1.90
2023-11-01T22:56:57.773Z,1.93
2023-11-01T22:59:44.865Z,1.93
2023-11-01T23:02:32.311Z,1.83
2023-11-01T23:05:19.510Z,2.10
2023-11-01T23:08:06.649Z,1.80
2023-11-01T23:10:53.770Z,1.70
2023-11-01T23:13:41.037Z,1.90
2023-11-01T23:16:29.565Z,1.60
2023-11-01T23:19:16.779Z,1.90
2023-11-01T23:22:04.236Z,1.50
2023-11-01T23:24:51.345Z,1.50
2023-11-01T23:27:39.282Z,2.03
2023-11-01T23:30:50.301Z,1.80
2023-11-01T23:33:40.675Z,1.50
2023-11-01T23:36:31.173Z,2.20
2023-11-01T23:39:34.996Z,2.00
2023-11-01T23:42:22.214Z,1.67
2023-11-01T23:45:39.608Z,1.83
2023-11-01T23:48:26.734Z,1.50
2023-11-01T23:51:48.380Z,1.70
2023-11-01T23:54:35.511Z,1.80
2023-11-01T23:57:24.155Z,1.60
